New York, NY

10:13 PM EDT on March 30, 2015 (GMT -0400)
Flatiron | | Change Station
CLOSE
Current Station
Personal Weather Station
Location: New York, NY
Elevation: 207 ft
Nearby Weather Stations

Elev 207 ft 40.74 °N, 73.99 °W | Updated 12 seconds ago

Scattered Clouds
Scattered Clouds
46.9 °F
Feels Like 47 °F
N
1.8
Wind Variable Wind from NNE
Gusts 2.5 mph

Today
High -- | Low -- °F
--% Chance of Precip.
Yesterday
High -- | Low -- °F
Precip. -- in
6:43 AM 7:18 PM
Waxing Gibbous, 83% visible
Pressure 29.86 in
Visibility 10.0 miles
Clouds Few 3700 ft
Scattered Clouds 7000 ft
Scattered Clouds 8000 ft
Windchill 47 °F
Dew Point 30 °F
Humidity 51%
Rainfall 0.00 in
Snow Depth Not available.
UV 0.0 out of 12
Pollen 9.90 out of 12
Air Quality Not available.
Flu Activity Not available.
METAR KNYC 310151Z AUTO 29010G21KT 260V320 10SM FEW037 SCT070 SCT080 08/M02 A2989 RMK AO2 PK WND 28038/0125 RAB26E36 SLP112 P0000 T00831022 $

More Conditions Fewer Conditions

Pressure 29.86 in
Visibility 10.0 miles
Clouds Few 3700 ft
Scattered Clouds 7000 ft
Scattered Clouds 8000 ft
Windchill 47 °F
Dew Point 30 °F
Humidity 51%
Rainfall 0.00 in
Snow Depth Not available.
UV 0.0 out of 12
Pollen 9.90 out of 12
Air Quality Not available.
Flu Activity Not available.
METAR KNYC 310151Z AUTO 29010G21KT 260V320 10SM FEW037 SCT070 SCT080 08/M02 A2989 RMK AO2 PK WND 28038/0125 RAB26E36 SLP112 P0000 T00831022 $

More Conditions Fewer Conditions

10-Day Weather Forecast

Almanac

Astronomy

Mar. 30, 2015 Rise Set
Actual Time
Civil Twilight
Nautical Twilight
Astronomical Twilight
Moon
Length of Visible Light
Length of Day
Tomorrow will be .
, % of the Moon is Illuminated

Today's Extremes

State Highs State Lows

Community

WunderPhotos

Upload Photos

1,809,665 photos uploaded!

WunderBlogs® & News

Nearby

Air Quality

  Air Quality AQ Index Pollutant
Not available.

Snow Depth

Station Depth Elevation

Earthquake Activity

City Distance Mag. Time & Date
Minimum magnitude displayed is 2.5.

Coastal Water Temperatures

Place Temperature

Stations

Nearby Weather Stations

Station Location Temp. Windchill Dew Point Humidity Wind Precip. Elev Updated Type